Latest Weather Observations for Parkes Airport

IDN60801

Issued at 3:35 pm EST Saturday 30 August 2014 (issued every 30 minutes, with the page automatically refreshed every 10 minutes)

About weather observations | Map of weather stations | Latest weather observations for NSW | Other Formats
Station Details ID: 065068 Name: PARKES AIRPORT AWS Lat: -33.13 Lon: 148.24 Height: 323.3 m
Data from the previous 72 hours. | See also: Recent months at Parkes Airport
Date/Time
EST
Temp
°C
App
Temp
°C
Dew
Point
Rel
Hum
%
Delta-T
°C
Wind Press
QNH
hPa
Press
MSL
hPa
Rain
since 9 am
mm
Dir
 
Spd
km/h
Gust
km/h
Spd
kts
Gust
kts
30/03:30pm 17.8 15.3 8.1 53 5.0 S 11 15 6 8 1021.5 - 0.0
30/03:00pm 19.0 17.3 8.4 50 5.6 SSW 7 15 4 8 1021.6 1021.8 0.0
30/02:30pm 18.8 16.7 8.2 50 5.5 SSW 9 15 5 8 1021.9 - 0.0
30/02:00pm 18.7 16.5 7.8 49 5.7 SE 9 20 5 11 1022.4 - 0.0
30/01:30pm 17.7 15.3 6.9 49 5.5 SSW 9 17 5 9 1022.7 - 0.0
30/01:00pm 17.6 15.2 7.1 50 5.3 E 9 17 5 9 1023.2 - 0.0
30/12:30pm 16.9 14.0 6.4 50 5.2 SSE 11 22 6 12 1023.8 - 0.0
30/12:00pm 16.5 14.3 6.1 50 5.1 ESE 7 17 4 9 1024.4 1024.6 0.0
30/11:30am 16.5 13.7 6.9 53 4.8 E 11 17 6 9 1024.8 - 0.0
30/11:00am 15.3 12.3 5.8 53 4.6 ESE 11 19 6 10 1025.3 - 0.0
30/10:30am 15.0 11.7 6.3 56 4.3 ESE 13 19 7 10 1025.4 - 0.0
30/10:00am 14.4 10.7 6.3 58 4.0 SE 15 20 8 11 1025.7 - 0.0
30/09:30am 13.5 9.0 5.9 60 3.7 SE 19 26 10 14 1025.7 - 0.0
30/09:00am 12.6 7.4 5.5 62 3.4 SE 22 30 12 16 1025.8 1026.1 0.0
30/08:30am 11.3 6.3 4.7 64 3.0 SE 20 30 11 16 1025.9 - 0.0
30/08:00am 9.5 7.1 5.1 74 2.0 S 7 11 4 6 1025.8 - 0.0
30/07:30am 7.0 4.9 4.0 81 1.3 E 4 7 2 4 1025.8 - 0.0
30/07:00am 5.5 4.0 2.8 83 1.1 CALM 0 4 0 2 1025.6 - 0.0
30/06:30am 4.4 2.7 1.8 83 1.1 CALM 0 6 0 3 1025.4 - 0.0
30/06:00am 6.1 1.4 3.1 81 1.3 SE 17 20 9 11 1025.2 1025.5 0.0
30/05:30am 7.4 3.8 2.9 73 1.9 SSE 11 15 6 8 1025.1 - 0.0
30/05:00am 8.1 3.0 3.2 71 2.1 ESE 19 22 10 12 1025.1 - 0.0
30/04:30am 8.5 3.9 3.6 71 2.2 ESE 17 26 9 14 1024.9 - 0.0
30/04:00am 8.5 4.7 3.8 72 2.1 ESE 13 17 7 9 1024.8 - 0.0
30/03:30am 8.5 3.6 3.9 73 2.0 ESE 19 24 10 13 1024.6 - 0.0
30/03:00am 8.4 3.6 4.8 78 1.6 ESE 19 28 10 15 1024.7 1024.9 0.0
30/02:49am 8.0 3.4 5.6 85 1.1 ESE 19 24 10 13 1024.6 - 0.0
30/02:30am 3.0 0.6 2.3 95 0.3 NNE 4 7 2 4 1024.8 - 0.0
30/02:00am 2.2 -0.9 1.5 95 0.3 N 7 9 4 5 1024.8 - 0.0
30/01:30am 1.4 -1.9 0.4 93 0.4 NNE 7 13 4 7 1025.0 - 0.0
30/01:00am 2.9 1.2 2.0 94 0.4 CALM 0 0 0 0 1025.2 - 0.0
30/12:30am 2.7 1.0 1.8 94 0.4 CALM 0 0 0 0 1025.2 - 0.0
30/12:00am 3.3 0.4 2.4 94 0.4 NE 7 9 4 5 1025.3 1025.6 0.0
 
Date/Time
EST
Temp
°C
App
Temp
°C
Dew
Point
Rel
Hum
%
Delta-T
°C
Wind Press
QNH
hPa
Press
MSL
hPa
Rain
since 9 am
mm
Dir
 
Spd
km/h
Gust
km/h
Spd
kts
Gust
kts
29/11:30pm 3.0 0.0 2.1 94 0.4 NNE 7 9 4 5 1025.3 - 0.0
29/11:00pm 2.9 -0.1 1.9 93 0.4 NNE 7 9 4 5 1025.3 - 0.0
29/10:30pm 3.6 1.6 2.1 90 0.6 ENE 2 9 1 5 1025.4 - 0.0
29/10:00pm 5.3 2.3 4.0 91 0.6 ENE 9 11 5 6 1025.3 - 0.0
29/09:30pm 4.9 1.7 3.2 89 0.7 ENE 9 11 5 6 1025.5 - 0.0
29/09:00pm 5.1 2.8 3.0 86 0.9 S 4 7 2 4 1025.5 1025.8 0.0
29/08:30pm 6.9 5.2 4.2 83 1.2 S 2 6 1 3 1025.6 - 0.0
29/08:00pm 8.6 5.7 4.6 76 1.8 SSW 9 15 5 8 1025.5 - 0.0
29/07:30pm 8.9 6.0 4.9 76 1.8 SSW 9 11 5 6 1025.5 - 0.0
29/07:00pm 9.7 6.8 4.7 71 2.3 S 9 13 5 7 1025.3 - 0.0
29/06:30pm 11.4 8.0 5.7 68 2.7 S 13 15 7 8 1025.1 - 0.0
29/06:00pm 12.1 8.7 5.7 65 3.0 S 13 15 7 8 1025.1 1025.4 0.0
29/05:30pm 14.5 10.7 5.6 55 4.3 S 15 19 8 10 1024.7 - 0.0
29/05:00pm 16.2 11.9 5.2 48 5.3 S 17 24 9 13 1024.5 - 0.0
29/04:30pm 16.9 12.5 6.7 51 5.1 SSW 19 24 10 13 1024.5 - 0.0
29/04:00pm 17.2 12.9 7.0 51 5.2 SSW 19 24 10 13 1024.4 - 0.0
29/03:30pm 17.7 14.0 8.0 53 5.0 S 17 24 9 13 1024.4 - 0.0
29/03:00pm 17.2 12.6 6.7 50 5.3 S 20 28 11 15 1024.7 1024.9 0.0
29/02:30pm 17.8 13.8 6.7 48 5.6 S 17 28 9 15 1024.9 - 0.0
29/02:00pm 17.7 12.7 6.3 47 5.7 S 22 28 12 15 1025.2 - 0.0
29/01:30pm 17.2 12.2 4.5 43 6.1 S 20 32 11 17 1025.5 - 0.0
29/01:00pm 17.1 11.4 4.8 44 6.0 S 24 32 13 17 1025.9 - 0.0
29/12:30pm 17.7 12.9 7.2 50 5.4 SSW 22 32 12 17 1026.4 - 0.0
29/12:00pm 17.2 12.1 6.1 48 5.5 SSW 22 28 12 15 1026.8 1027.1 0.0
29/11:30am 16.0 12.5 7.2 56 4.4 SW 15 22 8 12 1027.4 - 0.0
29/11:00am 15.9 12.6 6.3 53 4.7 SSE 13 20 7 11 1027.8 - 0.0
29/10:30am 14.6 12.2 6.9 60 3.8 SW 9 15 5 8 1028.0 - 0.0
29/10:00am 13.3 11.1 6.4 63 3.4 W 7 9 4 5 1028.2 - 0.0
29/09:30am 11.9 10.3 6.4 69 2.6 WNW 4 7 2 4 1028.5 - 0.0
29/09:00am 11.2 10.4 6.7 74 2.2 CALM 0 0 0 0 1028.6 1028.9 0.0
29/08:30am 8.5 6.8 6.1 85 1.1 SSE 4 7 2 4 1028.6 - 0.0
29/08:00am 6.0 3.7 4.8 92 0.5 WSW 6 7 3 4 1028.4 - 0.0
29/07:30am 3.9 1.4 3.6 98 0.1 NNW 6 7 3 4 1028.2 - 0.0
29/07:00am 1.2 -0.7 0.8 97 0.2 CALM 0 0 0 0 1028.0 - 0.0
29/06:30am 0.3 -1.7 -0.4 95 0.3 CALM 0 0 0 0 1027.6 - 0.0
29/06:00am 2.0 0.3 1.6 97 0.2 CALM 0 0 0 0 1027.4 1027.6 0.0
29/05:30am 0.8 -1.2 0.1 95 0.3 CALM 0 0 0 0 1027.0 - 0.0
29/05:00am 1.0 -0.9 0.3 95 0.3 CALM 0 0 0 0 1026.9 - 0.0
29/04:30am 1.1 -0.9 0.2 94 0.3 CALM 0 0 0 0 1026.8 - 0.0
29/04:00am 1.5 -0.4 0.6 94 0.3 CALM 0 0 0 0 1026.5 - 0.0
29/03:30am 2.5 0.4 1.8 95 0.3 NE 2 7 1 4 1026.5 - 0.0
29/03:00am 2.2 0.4 1.5 95 0.3 CALM 0 0 0 0 1026.5 1026.8 0.0
29/02:30am 2.0 -1.0 1.0 93 0.4 NE 6 6 3 3 1026.6 - 0.0
29/02:00am 3.3 1.7 2.4 94 0.4 CALM 0 0 0 0 1026.6 - 0.0
29/01:30am 3.1 1.4 1.8 91 0.5 CALM 0 0 0 0 1026.9 - 0.0
29/01:00am 4.5 2.7 3.6 94 0.4 NE 2 7 1 4 1027.1 - 0.0
29/12:30am 3.8 2.2 2.3 90 0.6 CALM 0 0 0 0 1027.4 - 0.0
29/12:00am 5.4 4.2 4.5 94 0.4 CALM 0 0 0 0 1027.3 1027.5 0.0
 
Date/Time
EST
Temp
°C
App
Temp
°C
Dew
Point
Rel
Hum
%
Delta-T
°C
Wind Press
QNH
hPa
Press
MSL
hPa
Rain
since 9 am
mm
Dir
 
Spd
km/h
Gust
km/h
Spd
kts
Gust
kts
28/11:30pm 5.1 3.8 3.9 92 0.5 CALM 0 2 0 1 1027.4 - 0.0
28/11:00pm 4.4 2.8 2.4 87 0.8 CALM 0 0 0 0 1027.5 - 0.0
28/10:30pm 7.1 6.1 5.4 89 0.8 CALM 0 0 0 0 1027.4 - 0.0
28/10:00pm 6.4 3.5 4.7 89 0.8 E 9 11 5 6 1027.4 - 0.0
28/09:30pm 7.8 6.6 4.6 80 1.4 CALM 0 0 0 0 1027.1 - 0.0
28/09:00pm 9.9 8.4 6.6 80 1.6 W 4 7 2 4 1027.3 1027.5 0.0
28/08:30pm 9.7 9.0 7.1 84 1.2 CALM 0 6 0 3 1026.9 - 0.0
28/08:00pm 9.3 7.1 6.2 81 1.5 W 7 9 4 5 1026.8 - 0.0
28/07:30pm 9.4 6.4 5.8 78 1.7 SSW 11 11 6 6 1026.6 - 0.0
28/07:00pm 10.1 7.5 6.3 77 1.8 SSW 9 11 5 6 1026.3 - 0.0
28/06:30pm 11.6 8.3 6.5 71 2.5 S 13 15 7 8 1026.1 - 0.0
28/06:00pm 12.9 9.7 6.9 67 2.9 S 13 15 7 8 1025.9 1026.2 0.0
28/05:30pm 15.1 11.6 7.4 60 3.9 S 15 19 8 10 1025.6 - 0.0
28/05:00pm 16.4 13.0 7.6 56 4.5 S 15 19 8 10 1025.5 - 0.0
28/04:30pm 17.7 13.6 8.0 53 5.0 SSW 19 24 10 13 1025.2 - 0.0
28/04:00pm 17.2 13.7 8.9 58 4.4 SW 17 20 9 11 1025.2 - 0.0
28/03:30pm 18.5 14.7 7.6 49 5.6 SW 17 20 9 11 1025.0 - 0.0
28/03:00pm 17.4 13.6 5.7 46 5.7 S 15 17 8 9 1025.1 1025.4 0.0
28/02:30pm 18.6 15.1 7.4 48 5.8 SSW 15 20 8 11 1025.3 - 0.0
28/02:00pm 18.3 15.2 7.1 48 5.7 SSW 13 20 7 11 1025.4 - 0.0
28/01:30pm 17.8 15.3 6.7 48 5.6 ESE 9 11 5 6 1025.5 - 0.0
28/01:00pm 17.2 14.0 7.0 51 5.2 S 13 17 7 9 1025.8 - 0.0
28/12:30pm 17.8 15.0 8.4 54 4.9 E 13 20 7 11 1026.0 - 0.0
28/12:00pm 17.1 12.8 6.9 51 5.1 E 19 28 10 15 1026.3 1026.6 0.0
28/11:30am 16.4 13.2 6.8 53 4.8 ESE 13 20 7 11 1026.8 - 0.0
28/11:00am 16.2 13.0 6.9 54 4.7 ESE 13 20 7 11 1027.3 - 0.0
28/10:30am 15.0 10.6 7.3 60 3.9 SE 20 28 11 15 1027.4 - 0.0
28/10:00am 14.3 10.1 7.4 63 3.5 S 19 24 10 13 1027.4 - 0.0
28/09:30am 13.4 9.5 7.2 66 3.1 SE 17 24 9 13 1027.4 - 0.0
28/09:00am 12.2 8.3 6.9 70 2.6 S 17 22 9 12 1027.4 1027.6 0.0
28/08:30am 10.9 6.8 6.3 73 2.2 S 17 24 9 13 1027.4 - 0.0
28/08:00am 8.5 7.8 6.8 89 0.8 CALM 0 0 0 0 1027.1 - 0.0
28/07:30am 5.3 4.1 4.6 95 0.3 CALM 0 0 0 0 1026.9 - 0.0
28/07:00am 3.9 2.0 3.0 94 0.4 S 2 7 1 4 1026.5 - 0.0
28/06:30am 3.6 -0.4 2.6 93 0.4 SSW 13 15 7 8 1026.4 - 0.0
28/06:00am 3.1 -1.0 2.1 93 0.4 SSW 13 15 7 8 1026.2 1026.5 0.0
28/05:30am 4.1 1.5 3.2 94 0.4 W 6 7 3 4 1026.1 - 0.0
28/05:00am 3.2 0.8 2.2 93 0.4 WNW 4 9 2 5 1025.8 - 0.0
28/04:30am 4.6 1.3 2.6 87 0.8 S 9 15 5 8 1025.7 - 0.0
28/04:00am 4.5 0.9 3.2 91 0.5 SW 11 13 6 7 1026.0 - 0.0
28/03:30am 4.8 2.0 2.3 84 1.0 W 6 9 3 5 1025.8 - 0.0
28/03:00am 5.5 2.6 2.5 81 1.2 S 7 11 4 6 1025.9 1026.2 0.0
28/02:30am 7.4 2.1 3.1 74 1.8 S 20 24 11 13 1025.7 - 0.0
28/02:00am 7.5 3.6 3.2 74 1.9 SE 13 19 7 10 1025.7 - 0.0
28/01:30am 8.5 4.2 3.4 70 2.2 ESE 15 22 8 12 1025.8 - 0.0
28/01:00am 9.3 4.3 3.7 68 2.5 ESE 19 30 10 16 1025.9 - 0.0
28/12:30am 9.3 4.3 3.7 68 2.5 SSE 19 30 10 16 1025.9 - 0.0
28/12:00am 10.2 4.9 4.8 69 2.5 SE 22 32 12 17 1026.0 1026.3 0.0
 
Date/Time
EST
Temp
°C
App
Temp
°C
Dew
Point
Rel
Hum
%
Delta-T
°C
Wind Press
QNH
hPa
Press
MSL
hPa
Rain
since 9 am
mm
Dir
 
Spd
km/h
Gust
km/h
Spd
kts
Gust
kts
27/11:30pm 9.9 5.1 4.9 71 2.3 SE 19 26 10 14 1026.1 - 0.0
27/11:00pm 10.3 6.0 5.1 70 2.4 ESE 17 24 9 13 1026.0 - 0.0
27/10:30pm 9.7 5.3 4.9 72 2.2 ESE 17 20 9 11 1025.8 - 0.0
27/10:00pm 10.5 6.1 4.9 68 2.6 ESE 17 20 9 11 1025.9 - 0.0
27/09:30pm 10.9 6.0 5.2 68 2.7 SE 20 26 11 14 1025.7 - 0.0
27/09:00pm 10.9 6.5 4.6 65 2.9 SE 17 24 9 13 1025.5 1025.8 0.0
27/08:30pm 11.5 6.7 4.7 63 3.1 SE 19 24 10 13 1025.4 - 0.0
27/08:00pm 12.6 7.2 4.6 58 3.7 SSE 22 32 12 17 1025.3 - 0.0
27/07:30pm 12.7 7.2 4.2 56 3.9 SSE 22 26 12 14 1025.0 - 0.0
27/07:00pm 12.6 7.8 4.6 58 3.7 S 19 22 10 12 1024.8 - 0.0
27/06:30pm 12.5 8.0 4.2 57 3.8 S 17 20 9 11 1024.5 - 0.0
27/06:00pm 13.4 9.0 4.8 56 4.0 S 17 20 9 11 1024.3 1024.5 0.0
27/05:30pm 15.2 10.3 5.1 51 4.8 SSE 20 26 11 14 1024.1 - 0.0
27/05:00pm 16.4 11.2 5.7 49 5.2 S 22 30 12 16 1023.7 - 0.0
27/04:30pm 17.4 12.8 6.3 48 5.5 S 20 26 11 14 1023.5 - 0.0
27/04:00pm 18.0 13.4 6.5 47 5.8 SSE 20 30 11 16 1023.3 - 0.0

Other Formats:

Comma delimited format used in spreadsheet applications
http://www.bom.gov.au/fwo/IDN60801/IDN60801.95717.axf

JavaScript Object Notation format (JSON) in row-major order
http://www.bom.gov.au/fwo/IDN60801/IDN60801.95717.json